Time;durP1;ratioP1;P1;durP2;ratioP2;P2;SDS_P1;SDS_P2;PMS_P1;PMS_P2;Temp;Humidity;BMP_temperature;BMP_pressure;BME280_temperature;BME280_humidity;BME280_pressure;Samples;Min_cycle;Max_cycle;Signal;HPM_P1;HPM_P2
2023/01/02 00:02:15;;;;;;;17.55;11.40;;;8.70;99.90;;;;;;5108680;28;20059;-77
2023/01/02 00:04:41;;;;;;;19.90;11.88;;;8.80;99.90;;;;;;5101643;28;20036;-76
2023/01/02 00:07:07;;;;;;;18.00;10.50;;;8.80;99.90;;;;;;5089451;28;20382;-76
2023/01/02 00:09:32;;;;;;;19.63;11.25;;;8.80;99.90;;;;;;5089547;28;20034;-76
2023/01/02 00:11:58;;;;;;;26.80;11.90;;;8.80;99.90;;;;;;5098737;28;20111;-76
2023/01/02 00:14:24;;;;;;;19.50;11.02;;;8.70;99.90;;;;;;5108026;28;20036;-76
2023/01/02 00:16:50;;;;;;;16.58;10.55;;;8.80;99.90;;;;;;5096005;28;20067;-75
2023/01/02 00:19:15;;;;;;;19.15;12.13;;;8.70;99.90;;;;;;5092191;28;20028;-76
2023/01/02 00:21:41;;;;;;;18.98;10.82;;;8.80;99.90;;;;;;5092594;28;20024;-75
2023/01/02 00:24:07;;;;;;;18.95;11.27;;;8.80;99.90;;;;;;5092902;28;20126;-76
2023/01/02 00:26:33;;;;;;;15.70;10.63;;;8.70;99.90;;;;;;5092936;28;20103;-76
2023/01/02 00:29:00;;;;;;;21.70;11.98;;;8.70;99.90;;;;;;5092113;28;20111;-76
2023/01/02 00:31:25;;;;;;;19.08;11.10;;;8.70;99.90;;;;;;5104356;28;20024;-76
2023/01/02 00:33:51;;;;;;;19.83;11.85;;;8.70;99.90;;;;;;5105436;28;20503;-75
2023/01/02 00:36:17;;;;;;;18.00;11.52;;;8.70;99.90;;;;;;5112879;28;20473;-76
2023/01/02 00:38:42;;;;;;;17.67;11.20;;;8.70;99.90;;;;;;5092444;28;20031;-76
2023/01/02 00:41:08;;;;;;;18.92;10.00;;;8.70;99.90;;;;;;5091776;28;20566;-76
2023/01/02 00:43:35;;;;;;;18.40;9.90;;;8.70;99.90;;;;;;5091745;28;20028;-76
2023/01/02 00:46:00;;;;;;;18.80;10.85;;;8.70;99.90;;;;;;5108241;28;20389;-76
2023/01/02 00:48:26;;;;;;;21.30;12.27;;;8.70;99.90;;;;;;5091143;28;20036;-76
2023/01/02 00:50:52;;;;;;;20.67;12.60;;;8.70;99.90;;;;;;5092880;28;20024;-76
2023/01/02 00:53:18;;;;;;;20.15;12.43;;;8.70;99.90;;;;;;5091760;28;20028;-76
2023/01/02 00:55:45;;;;;;;18.73;11.43;;;8.60;99.90;;;;;;5093283;28;20066;-76
2023/01/02 00:58:12;;;;;;;22.27;11.55;;;8.60;99.90;;;;;;5096308;28;20028;-76
2023/01/02 01:00:38;;;;;;;19.23;11.18;;;8.60;99.90;;;;;;5092501;28;20024;-76
2023/01/02 01:03:04;;;;;;;17.75;10.60;;;8.60;99.90;;;;;;5102885;28;20031;-76
2023/01/02 01:05:30;;;;;;;24.15;11.27;;;8.60;99.90;;;;;;5112404;28;20093;-75
2023/01/02 01:07:56;;;;;;;21.63;12.70;;;8.60;99.90;;;;;;5096300;28;20036;-76
2023/01/02 01:10:23;;;;;;;18.70;11.20;;;8.60;99.90;;;;;;5112984;28;20527;-76
2023/01/02 01:12:49;;;;;;;24.10;12.27;;;8.60;99.90;;;;;;5098033;28;20035;-75
2023/01/02 01:15:15;;;;;;;22.65;11.95;;;8.60;99.90;;;;;;5106681;28;20077;-75
2023/01/02 01:17:41;;;;;;;20.15;11.98;;;8.70;99.90;;;;;;5100986;28;20028;-76
2023/01/02 01:20:07;;;;;;;19.20;11.20;;;8.70;99.90;;;;;;5108593;28;20096;-76
2023/01/02 01:22:33;;;;;;;17.75;10.30;;;8.80;99.90;;;;;;5095374;28;20040;-76
2023/01/02 01:24:58;;;;;;;20.67;11.18;;;8.80;99.90;;;;;;5095805;28;20040;-75
2023/01/02 01:27:24;;;;;;;18.33;10.43;;;8.80;99.90;;;;;;5096115;28;20146;-75
2023/01/02 01:29:49;;;;;;;22.45;12.18;;;8.70;99.90;;;;;;5094227;28;20029;-76
2023/01/02 01:32:15;;;;;;;20.15;12.38;;;8.70;99.90;;;;;;5096004;28;20028;-76
2023/01/02 01:34:42;;;;;;;25.98;13.32;;;8.70;99.90;;;;;;5095319;28;20040;-75
2023/01/02 01:37:07;;;;;;;23.77;12.93;;;8.60;99.90;;;;;;5105049;28;20030;-76
2023/01/02 01:39:33;;;;;;;23.60;12.98;;;8.50;99.90;;;;;;5109803;28;20393;-76
2023/01/02 01:41:59;;;;;;;20.67;12.25;;;8.60;99.90;;;;;;5100000;28;20035;-75
2023/01/02 01:44:51;;;;;;;20.95;11.93;;;8.50;99.90;;;;;;5111534;28;20047;-75
2023/01/02 01:47:25;;;;;;;17.88;10.45;;;8.60;99.90;;;;;;5095793;28;20055;-76
2023/01/02 01:49:57;;;;;;;17.42;10.23;;;8.60;99.90;;;;;;5094619;28;20047;-76
2023/01/02 01:52:25;;;;;;;18.80;10.15;;;8.60;99.90;;;;;;5095551;28;20474;-75
2023/01/02 01:54:57;;;;;;;14.60;9.25;;;8.60;99.90;;;;;;5094265;28;20032;-76
2023/01/02 01:57:56;;;;;;;19.08;10.35;;;8.70;99.90;;;;;;5095187;28;20064;-75
2023/01/02 02:00:22;;;;;;;16.95;9.82;;;8.70;99.90;;;;;;5071600;28;20123;-76
2023/01/02 02:02:57;;;;;;;16.45;10.65;;;8.70;99.90;;;;;;5095465;28;20121;-75
2023/01/02 02:05:27;;;;;;;18.73;11.63;;;8.70;99.90;;;;;;5101437;28;20512;-76
2023/01/02 02:08:02;;;;;;;23.80;12.48;;;8.70;99.90;;;;;;5098917;28;20028;-75
2023/01/02 02:10:28;;;;;;;21.02;11.48;;;8.70;99.90;;;;;;5093033;28;20038;-76
2023/01/02 02:12:54;;;;;;;17.42;10.45;;;8.70;99.90;;;;;;5094141;28;20027;-76
2023/01/02 02:15:26;;;;;;;17.65;11.15;;;8.70;99.90;;;;;;5094259;28;20031;-76
2023/01/02 02:18:10;;;;;;;21.95;12.18;;;8.70;99.90;;;;;;5091945;28;20494;-76
2023/01/02 02:20:51;;;;;;;20.38;12.45;;;8.60;99.90;;;;;;5094200;28;20118;-75
2023/01/02 02:23:26;;;;;;;17.50;11.52;;;8.60;99.90;;;;;;5109039;28;20032;-76
2023/01/02 02:26:22;;;;;;;20.05;11.30;;;8.60;99.90;;;;;;5115105;28;20059;-76
2023/01/02 02:29:29;;;;;;;18.05;11.07;;;8.60;99.90;;;;;;5099125;28;20031;-76
2023/01/02 02:32:14;;;;;;;23.52;11.10;;;8.60;99.90;;;;;;5100678;28;20118;-75
2023/01/02 02:34:55;;;;;;;20.50;10.93;;;8.50;99.90;;;;;;5093037;28;20401;-75
2023/01/02 02:37:20;;;;;;;19.70;12.15;;;8.40;99.90;;;;;;5097840;28;20618;-76
2023/01/02 02:40:17;;;;;;;21.58;12.40;;;8.50;99.90;;;;;;5104635;28;20085;-76
2023/01/02 02:42:43;;;;;;;17.80;10.07;;;8.50;99.90;;;;;;5093919;28;20032;-75
2023/01/02 02:45:24;;;;;;;17.80;10.98;;;8.50;99.90;;;;;;5094264;28;20035;-75
2023/01/02 02:48:01;;;;;;;16.73;10.52;;;8.50;99.90;;;;;;5092617;28;20027;-75
2023/01/02 02:50:41;;;;;;;19.30;10.43;;;8.50;99.90;;;;;;5105544;28;20523;-75
2023/01/02 02:53:25;;;;;;;21.30;10.52;;;8.50;99.90;;;;;;5093918;28;20355;-75
2023/01/02 02:55:55;;;;;;;19.47;10.13;;;8.40;99.90;;;;;;5094473;28;20024;-76
2023/01/02 02:58:22;;;;;;;16.33;9.85;;;8.50;99.90;;;;;;5093714;28;20039;-77
2023/01/02 03:00:48;;;;;;;19.23;9.18;;;8.40;99.90;;;;;;5093602;28;20039;-76
2023/01/02 03:03:24;;;;;;;16.42;8.95;;;8.40;99.90;;;;;;5092373;28;20032;-75
2023/01/02 03:06:12;;;;;;;15.68;9.35;;;8.40;99.90;;;;;;5093684;28;20035;-75
2023/01/02 03:09:04;;;;;;;16.55;9.73;;;8.40;99.90;;;;;;5093999;28;20024;-76
2023/01/02 03:11:48;;;;;;;16.60;9.50;;;8.50;99.90;;;;;;5093856;28;20086;-75
2023/01/02 03:14:24;;;;;;;17.23;9.88;;;8.50;99.90;;;;;;5093447;28;20123;-75
2023/01/02 03:16:59;;;;;;;16.55;10.30;;;8.50;99.90;;;;;;5092606;28;20075;-76
2023/01/02 03:19:36;;;;;;;14.82;9.65;;;8.50;99.90;;;;;;5093316;28;20074;-76
2023/01/02 03:22:10;;;;;;;15.98;9.50;;;8.40;99.90;;;;;;5093115;28;20486;-75
2023/01/02 03:24:37;;;;;;;17.15;8.85;;;8.40;99.90;;;;;;5094360;28;20123;-76
2023/01/02 03:27:07;;;;;;;15.52;9.57;;;8.40;99.90;;;;;;5095164;28;20039;-76
2023/01/02 03:29:38;;;;;;;16.80;9.20;;;8.40;99.90;;;;;;5093674;28;20027;-76
2023/01/02 03:32:10;;;;;;;17.30;9.85;;;8.40;99.90;;;;;;5093181;28;20097;-75
2023/01/02 03:34:39;;;;;;;12.38;7.75;;;8.30;99.90;;;;;;5101457;28;20032;-75
2023/01/02 03:37:13;;;;;;;12.65;8.10;;;8.40;99.90;;;;;;5110514;28;20047;-76
2023/01/02 03:39:44;;;;;;;16.30;9.43;;;8.30;99.90;;;;;;5093616;28;20024;-76
2023/01/02 03:42:21;;;;;;;20.42;9.10;;;8.30;99.90;;;;;;5093823;28;20382;-76
2023/01/02 03:45:10;;;;;;;16.00;9.57;;;8.40;99.90;;;;;;5092833;28;20068;-75
2023/01/02 03:48:02;;;;;;;18.25;9.48;;;8.50;99.90;;;;;;5092129;28;20434;-76
2023/01/02 03:50:51;;;;;;;15.20;9.25;;;8.40;99.90;;;;;;5088981;28;20046;-76
2023/01/02 03:53:17;;;;;;;16.15;9.48;;;8.40;99.90;;;;;;5093159;28;20032;-75
2023/01/02 03:56:09;;;;;;;17.95;9.45;;;8.40;99.90;;;;;;5092602;28;20113;-76
2023/01/02 03:58:42;;;;;;;14.57;9.35;;;8.30;99.90;;;;;;5106960;28;20023;-75
2023/01/02 04:01:14;;;;;;;17.42;9.35;;;8.30;99.90;;;;;;5088305;28;20036;-75
2023/01/02 04:03:55;;;;;;;17.67;10.07;;;8.30;99.90;;;;;;5095715;28;20043;-75
2023/01/02 04:06:28;;;;;;;15.60;8.10;;;8.30;99.90;;;;;;5086275;28;20044;-73
2023/01/02 04:09:18;;;;;;;19.85;9.50;;;8.10;99.90;;;;;;5087137;28;20166;-73
2023/01/02 04:11:50;;;;;;;16.95;9.13;;;8.10;99.90;;;;;;5087803;28;20030;-75
2023/01/02 04:14:34;;;;;;;18.67;9.00;;;8.10;99.90;;;;;;5092521;28;20071;-72
2023/01/02 04:17:03;;;;;;;13.75;8.52;;;8.10;99.90;;;;;;5086954;28;20028;-72
2023/01/02 04:19:42;;;;;;;13.20;7.43;;;8.20;99.90;;;;;;5088860;28;20023;-76
2023/01/02 04:22:16;;;;;;;16.98;10.20;;;8.20;99.90;;;;;;5105874;28;20073;-75
2023/01/02 04:24:48;;;;;;;15.70;9.82;;;8.20;99.90;;;;;;5097959;28;20032;-75
2023/01/02 04:27:20;;;;;;;18.88;10.15;;;8.10;99.90;;;;;;5101690;28;20058;-76
2023/01/02 04:29:46;;;;;;;18.67;10.48;;;8.10;99.90;;;;;;5085550;28;20039;-73
2023/01/02 04:32:36;;;;;;;19.40;11.52;;;8.30;99.90;;;;;;5087644;28;20024;-72
2023/01/02 04:35:07;;;;;;;17.95;11.13;;;8.30;99.90;;;;;;5085441;28;20076;-73
2023/01/02 04:37:36;;;;;;;20.08;10.43;;;8.30;99.90;;;;;;5088824;28;20385;-75
2023/01/02 04:40:29;;;;;;;21.20;12.15;;;8.20;99.90;;;;;;5085703;28;20549;-75
2023/01/02 04:42:55;;;;;;;16.90;9.77;;;8.10;99.90;;;;;;5083442;28;20063;-75
2023/01/02 04:45:21;;;;;;;20.83;12.02;;;8.10;99.90;;;;;;5089834;28;20405;-75
2023/01/02 04:47:48;;;;;;;21.38;11.65;;;8.10;99.90;;;;;;5099105;28;20032;-73
2023/01/02 04:50:14;;;;;;;25.40;12.43;;;8.10;99.90;;;;;;5096039;28;20031;-73
2023/01/02 04:52:39;;;;;;;22.13;11.75;;;8.20;99.90;;;;;;5100434;28;20077;-75
2023/01/02 04:55:09;;;;;;;22.92;11.82;;;8.30;99.90;;;;;;5085327;28;20055;-73
2023/01/02 04:57:36;;;;;;;18.23;10.80;;;8.30;99.90;;;;;;5090296;28;20072;-73
2023/01/02 05:00:04;;;;;;;18.67;11.40;;;8.30;99.90;;;;;;5089567;28;20110;-77
2023/01/02 05:02:38;;;;;;;16.73;10.18;;;8.40;99.90;;;;;;5087533;28;20055;-73
2023/01/02 05:05:05;;;;;;;18.48;11.80;;;8.40;99.90;;;;;;5087915;28;20136;-73
2023/01/02 05:07:35;;;;;;;18.67;10.80;;;8.50;99.90;;;;;;5087468;28;20085;-73
2023/01/02 05:10:01;;;;;;;17.50;10.50;;;8.40;99.90;;;;;;5106112;28;20416;-76
2023/01/02 05:12:27;;;;;;;19.73;10.98;;;8.40;99.90;;;;;;5100374;28;20070;-73
2023/01/02 05:14:52;;;;;;;18.08;11.77;;;8.30;99.90;;;;;;5089296;28;20042;-75
2023/01/02 05:17:18;;;;;;;27.17;14.82;;;8.40;99.90;;;;;;5089191;28;20523;-75
2023/01/02 05:19:44;;;;;;;25.55;14.10;;;8.40;99.90;;;;;;5087915;28;20166;-73
2023/01/02 05:24:56;;;;;;;21.77;12.80;;;8.30;99.90;;;;;;5106076;28;20081;-72
2023/01/02 05:27:22;;;;;;;19.95;12.05;;;8.20;99.90;;;;;;5094341;28;20031;-73
2023/01/02 05:29:47;;;;;;;19.05;12.18;;;8.30;99.90;;;;;;5088634;28;20531;-73
2023/01/02 05:32:13;;;;;;;22.05;12.07;;;8.20;99.90;;;;;;5087909;28;20378;-73
2023/01/02 05:34:39;;;;;;;21.52;13.07;;;8.20;99.90;;;;;;5093104;28;20499;-73
2023/01/02 05:37:04;;;;;;;17.23;11.82;;;8.20;99.90;;;;;;5092986;28;20495;-73
2023/01/02 05:39:30;;;;;;;15.38;10.32;;;8.10;99.90;;;;;;5087775;28;20050;-73
2023/01/02 05:41:55;;;;;;;20.95;12.07;;;8.20;99.90;;;;;;5088514;28;20534;-75
2023/01/02 05:44:21;;;;;;;19.88;12.02;;;8.10;99.90;;;;;;5088092;28;20615;-73
2023/01/02 05:46:47;;;;;;;21.02;12.52;;;8.10;99.90;;;;;;5088159;28;20451;-73
2023/01/02 05:49:12;;;;;;;23.77;13.52;;;8.00;99.90;;;;;;5087476;28;20085;-73
2023/01/02 05:51:38;;;;;;;23.17;13.32;;;8.10;99.90;;;;;;5087531;28;20036;-75
2023/01/02 05:54:04;;;;;;;18.83;12.13;;;8.10;99.90;;;;;;5090052;28;20027;-73
2023/01/02 05:56:30;;;;;;;23.42;13.68;;;8.10;99.90;;;;;;5090200;28;20031;-73
2023/01/02 05:58:56;;;;;;;25.75;14.00;;;8.10;99.90;;;;;;5087620;28;20032;-73
2023/01/02 06:01:24;;;;;;;20.13;12.80;;;8.10;99.90;;;;;;5087737;28;20042;-73
2023/01/02 06:03:52;;;;;;;21.30;12.73;;;8.10;99.90;;;;;;5093693;28;20035;-77
2023/01/02 06:06:21;;;;;;;19.00;12.38;;;8.10;99.90;;;;;;5100675;28;20036;-73
2023/01/02 06:08:46;;;;;;;19.48;11.95;;;8.10;99.90;;;;;;5086787;28;20028;-75
2023/01/02 06:11:12;;;;;;;22.73;12.60;;;8.00;99.90;;;;;;5104940;28;20038;-73
2023/01/02 06:13:38;;;;;;;20.17;12.50;;;8.00;99.90;;;;;;5088895;28;21079;-76
2023/01/02 06:16:06;;;;;;;23.60;13.57;;;8.00;99.90;;;;;;5088771;28;20081;-75
2023/01/02 06:18:33;;;;;;;21.00;13.32;;;8.00;99.90;;;;;;5087464;28;20044;-73
2023/01/02 06:21:00;;;;;;;22.90;13.05;;;8.00;99.90;;;;;;5087691;28;20031;-76
2023/01/02 06:23:26;;;;;;;24.83;14.57;;;7.90;99.90;;;;;;5087733;28;20474;-73
2023/01/02 06:25:52;;;;;;;20.08;12.60;;;8.00;99.90;;;;;;5096403;28;20043;-73
2023/01/02 06:28:17;;;;;;;25.48;14.38;;;8.10;99.90;;;;;;5094276;28;20116;-75
2023/01/02 06:30:43;;;;;;;24.35;14.50;;;8.00;99.90;;;;;;5090932;28;20028;-73
2023/01/02 06:33:09;;;;;;;23.67;14.93;;;7.90;99.90;;;;;;5096593;28;20028;-72
2023/01/02 06:35:34;;;;;;;24.10;12.90;;;7.80;99.90;;;;;;5105758;28;20059;-72
2023/01/02 06:38:00;;;;;;;22.40;13.38;;;7.90;99.90;;;;;;5093165;28;20060;-73
2023/01/02 06:40:26;;;;;;;20.67;13.07;;;7.90;99.90;;;;;;5087818;28;20032;-73
2023/01/02 06:42:51;;;;;;;19.65;11.77;;;8.00;99.90;;;;;;5086539;28;20040;-73
2023/01/02 06:45:17;;;;;;;20.25;11.90;;;8.00;99.90;;;;;;5087439;28;20101;-74
2023/01/02 06:47:43;;;;;;;21.90;11.73;;;7.90;99.90;;;;;;5095408;28;20038;-73
2023/01/02 06:50:09;;;;;;;18.00;11.73;;;8.00;99.90;;;;;;5087679;28;20055;-76
2023/01/02 06:52:34;;;;;;;22.40;13.18;;;8.00;99.90;;;;;;5086446;28;20688;-75
2023/01/02 06:55:00;;;;;;;20.20;12.57;;;8.00;99.90;;;;;;5089394;28;20031;-73
2023/01/02 06:57:29;;;;;;;20.98;12.18;;;7.90;99.90;;;;;;5089642;28;20089;-76
2023/01/02 06:59:55;;;;;;;19.33;13.25;;;7.80;99.90;;;;;;5089507;28;20064;-75
2023/01/02 07:02:20;;;;;;;25.63;13.02;;;7.80;99.90;;;;;;5095642;28;20422;-74
2023/01/02 07:04:46;;;;;;;20.58;12.85;;;7.80;99.90;;;;;;5092325;28;20059;-75
2023/01/02 07:07:12;;;;;;;25.08;13.43;;;7.70;99.90;;;;;;5089935;28;20095;-75
2023/01/02 07:09:37;;;;;;;21.85;13.63;;;7.70;99.90;;;;;;5089260;28;20021;-75
2023/01/02 07:12:03;;;;;;;22.73;13.00;;;7.70;99.90;;;;;;5097673;28;20032;-75
2023/01/02 07:14:29;;;;;;;18.25;11.52;;;7.70;99.90;;;;;;5089489;28;20021;-73
2023/01/02 07:16:54;;;;;;;22.55;12.43;;;7.80;99.90;;;;;;5089833;28;20084;-72
2023/01/02 07:19:20;;;;;;;19.15;12.25;;;7.80;99.90;;;;;;5087021;28;20036;-71
2023/01/02 07:21:46;;;;;;;25.05;12.30;;;7.80;99.90;;;;;;5101925;28;20034;-71
2023/01/02 07:24:14;;;;;;;19.02;9.90;;;7.90;99.90;;;;;;5096702;28;20023;-70
2023/01/02 07:26:40;;;;;;;19.50;10.90;;;7.70;99.90;;;;;;5103109;28;20059;-71
2023/01/02 07:29:06;;;;;;;22.55;11.82;;;7.70;99.90;;;;;;5095686;28;20023;-71
2023/01/02 07:31:32;;;;;;;18.42;9.98;;;7.70;99.90;;;;;;5095318;28;20038;-71
2023/01/02 07:33:58;;;;;;;19.20;11.55;;;7.70;99.90;;;;;;5103554;28;20027;-71
2023/01/02 07:36:24;;;;;;;16.88;9.73;;;7.80;99.90;;;;;;5096316;28;20516;-73
2023/01/02 07:38:51;;;;;;;20.00;11.48;;;7.80;99.90;;;;;;5104932;28;20079;-71
2023/01/02 07:41:19;;;;;;;15.00;10.65;;;7.80;99.90;;;;;;5097796;28;20418;-71
2023/01/02 07:43:46;;;;;;;18.83;10.05;;;7.80;99.90;;;;;;5099766;28;20035;-71
2023/01/02 07:46:16;;;;;;;17.00;9.93;;;7.90;99.90;;;;;;5093845;28;20089;-71
2023/01/02 07:48:43;;;;;;;17.52;10.75;;;7.90;99.90;;;;;;5096814;28;20127;-71
2023/01/02 07:51:09;;;;;;;14.13;9.00;;;7.80;99.90;;;;;;5090446;28;20067;-72
2023/01/02 07:53:35;;;;;;;15.27;10.48;;;7.80;99.90;;;;;;5099313;28;20035;-73
2023/01/02 07:56:02;;;;;;;15.52;9.20;;;7.80;99.90;;;;;;5096397;28;20016;-72
2023/01/02 07:58:28;;;;;;;20.02;11.48;;;7.80;99.90;;;;;;5092637;28;20032;-73
2023/01/02 08:00:54;;;;;;;18.75;11.70;;;7.80;99.90;;;;;;5084274;28;20020;-72
2023/01/02 08:03:20;;;;;;;20.02;11.90;;;7.70;99.90;;;;;;5084667;28;20028;-72
2023/01/02 08:05:46;;;;;;;20.15;11.55;;;7.70;99.90;;;;;;5093253;28;20413;-75
2023/01/02 08:08:12;;;;;;;19.90;13.02;;;7.70;99.90;;;;;;5096632;28;20032;-72
2023/01/02 08:10:37;;;;;;;17.15;10.90;;;7.70;99.90;;;;;;5094576;28;20080;-72
2023/01/02 08:13:04;;;;;;;16.77;10.55;;;7.60;99.90;;;;;;5097275;28;20645;-72
2023/01/02 08:15:30;;;;;;;19.95;10.68;;;7.50;99.90;;;;;;5096770;28;20028;-72
2023/01/02 08:17:56;;;;;;;20.45;11.10;;;7.50;99.90;;;;;;5097121;28;20024;-72
2023/01/02 08:20:23;;;;;;;15.98;10.00;;;7.60;99.90;;;;;;5098091;28;20098;-73
2023/01/02 08:22:48;;;;;;;22.80;12.27;;;7.60;99.90;;;;;;5083535;28;20036;-75
2023/01/02 08:25:14;;;;;;;18.80;10.80;;;7.70;99.90;;;;;;5099235;28;20043;-75
2023/01/02 08:27:40;;;;;;;21.45;11.38;;;7.80;99.90;;;;;;5095419;28;20378;-75
2023/01/02 08:30:07;;;;;;;26.85;12.23;;;7.70;99.90;;;;;;5085230;28;20024;-74
2023/01/02 08:32:37;;;;;;;27.23;13.10;;;7.70;99.90;;;;;;5090223;28;20454;-75
2023/01/02 08:35:05;;;;;;;21.23;13.20;;;7.70;99.90;;;;;;5092883;28;20152;-76
2023/01/02 08:37:31;;;;;;;23.77;12.65;;;7.60;99.90;;;;;;5092830;28;20028;-75
2023/01/02 08:39:56;;;;;;;19.65;11.95;;;7.60;99.90;;;;;;5092561;28;20127;-72
2023/01/02 08:42:22;;;;;;;18.58;11.80;;;7.50;99.90;;;;;;5092893;28;20098;-72
2023/01/02 08:44:48;;;;;;;18.27;10.50;;;7.50;99.90;;;;;;5091435;28;20044;-72
2023/01/02 08:47:13;;;;;;;19.50;10.50;;;7.60;99.90;;;;;;5087527;28;20023;-72
2023/01/02 08:49:39;;;;;;;20.88;10.43;;;7.60;99.90;;;;;;5093096;28;20673;-72
2023/01/02 08:52:05;;;;;;;20.38;11.00;;;7.50;99.90;;;;;;5093418;28;20373;-72
2023/01/02 08:54:30;;;;;;;14.25;10.10;;;7.60;99.90;;;;;;5093933;28;20032;-72
2023/01/02 08:56:56;;;;;;;17.83;8.85;;;7.60;99.90;;;;;;5099136;28;20542;-72
2023/01/02 08:59:24;;;;;;;15.35;9.50;;;7.60;99.90;;;;;;5096749;28;20051;-72
2023/01/02 09:01:50;;;;;;;18.42;10.98;;;7.50;99.90;;;;;;5088171;28;20370;-72
2023/01/02 09:04:15;;;;;;;21.52;11.90;;;7.50;99.90;;;;;;5090091;28;20031;-72
2023/01/02 09:06:43;;;;;;;18.30;11.82;;;7.50;99.90;;;;;;5087920;28;20024;-72
2023/01/02 09:09:11;;;;;;;20.75;11.52;;;7.50;99.90;;;;;;5091636;28;20111;-72
2023/01/02 09:11:38;;;;;;;15.38;9.68;;;7.50;99.90;;;;;;5091016;28;20039;-72
2023/01/02 09:14:05;;;;;;;16.48;10.38;;;7.40;99.90;;;;;;5095464;28;20027;-72
2023/01/02 09:16:31;;;;;;;15.75;10.18;;;7.40;99.90;;;;;;5090487;28;20032;-72
2023/01/02 09:18:58;;;;;;;17.15;11.25;;;7.30;99.90;;;;;;5090272;28;20081;-72
2023/01/02 09:21:24;;;;;;;16.38;9.70;;;7.30;99.90;;;;;;5084706;28;20028;-72
2023/01/02 09:23:50;;;;;;;16.40;10.32;;;7.30;99.90;;;;;;5092237;28;20027;-72
2023/01/02 09:26:17;;;;;;;19.38;9.57;;;7.40;99.90;;;;;;5089734;28;20039;-72
2023/01/02 09:28:43;;;;;;;15.40;9.80;;;7.30;99.90;;;;;;5089790;28;20040;-75
2023/01/02 09:31:14;;;;;;;20.25;10.88;;;7.40;99.90;;;;;;5089601;28;20428;-72
2023/01/02 09:33:42;;;;;;;13.95;9.60;;;7.40;99.90;;;;;;5087783;28;20074;-72
2023/01/02 09:36:10;;;;;;;17.65;9.60;;;7.50;99.90;;;;;;5090593;28;20083;-72
2023/01/02 09:38:36;;;;;;;16.67;9.60;;;7.50;99.90;;;;;;5089386;28;20028;-72
2023/01/02 09:41:21;;;;;;;15.05;8.93;;;7.50;99.90;;;;;;5084945;28;20124;-71
2023/01/02 09:43:55;;;;;;;17.73;10.75;;;7.60;99.90;;;;;;5088085;28;20102;-72
2023/01/02 09:46:37;;;;;;;14.27;9.23;;;7.70;99.90;;;;;;5092932;28;20036;-71
2023/01/02 09:49:03;;;;;;;14.95;9.88;;;7.80;99.90;;;;;;5101297;28;20529;-71
2023/01/02 09:51:34;;;;;;;16.17;9.88;;;7.80;99.90;;;;;;5107193;28;20043;-73
2023/01/02 09:54:00;;;;;;;19.08;11.15;;;7.70;99.90;;;;;;5097782;28;20059;-73
2023/01/02 09:56:36;;;;;;;17.80;9.73;;;7.70;99.90;;;;;;5090280;28;20030;-72
2023/01/02 09:59:19;;;;;;;19.30;11.75;;;7.70;99.90;;;;;;5090111;28;20028;-72
2023/01/02 10:01:47;;;;;;;17.80;9.85;;;7.80;99.90;;;;;;5088943;28;20462;-73
2023/01/02 10:04:30;;;;;;;18.75;10.30;;;7.80;99.90;;;;;;5098766;28;20028;-73
2023/01/02 10:07:27;;;;;;;14.75;9.57;;;7.90;99.90;;;;;;5105766;28;20046;-72
2023/01/02 10:10:08;;;;;;;18.75;10.48;;;8.00;99.90;;;;;;5069756;28;20149;-70
2023/01/02 10:12:41;;;;;;;17.85;10.63;;;8.10;99.90;;;;;;5091599;28;20023;-71
2023/01/02 10:15:15;;;;;;;19.65;10.15;;;8.20;99.90;;;;;;5094781;28;20028;-70
2023/01/02 10:17:49;;;;;;;18.55;11.35;;;8.20;99.90;;;;;;5096504;28;20110;-72
2023/01/02 10:20:26;;;;;;;18.95;10.00;;;8.30;99.90;;;;;;5096364;28;20059;-70
2023/01/02 10:23:08;;;;;;;18.88;11.82;;;8.40;99.90;;;;;;5092058;28;20032;-71
2023/01/02 10:25:52;;;;;;;23.27;11.10;;;8.40;99.90;;;;;;5102285;28;20097;-71
2023/01/02 10:28:27;;;;;;;20.98;10.35;;;8.40;99.90;;;;;;5102270;28;20061;-71
2023/01/02 10:31:03;;;;;;;19.75;11.38;;;8.40;99.90;;;;;;5089351;28;20032;-72
2023/01/02 10:33:50;;;;;;;16.48;9.80;;;8.30;99.90;;;;;;5090786;28;20023;-71
2023/01/02 10:36:45;;;;;;;17.35;8.38;;;8.30;99.90;;;;;;5093036;27;20371;-71
2023/01/02 10:39:24;;;;;;;16.80;9.95;;;8.50;99.90;;;;;;5078924;28;20395;-75
2023/01/02 10:41:56;;;;;;;18.90;9.45;;;8.70;99.90;;;;;;5088440;28;20028;-72
2023/01/02 10:44:25;;;;;;;15.05;8.95;;;8.70;99.90;;;;;;5094753;28;20603;-71
2023/01/02 10:46:51;;;;;;;16.25;8.95;;;8.80;99.90;;;;;;5096827;28;20031;-70
2023/01/02 10:49:18;;;;;;;17.08;9.95;;;8.70;99.90;;;;;;5095848;28;20023;-70
2023/01/02 10:52:06;;;;;;;18.67;9.27;;;8.70;99.90;;;;;;5091584;28;20028;-70
2023/01/02 10:54:51;;;;;;;17.30;9.70;;;8.80;99.90;;;;;;5096801;28;20028;-73
2023/01/02 10:57:23;;;;;;;15.93;8.55;;;8.80;99.90;;;;;;5098213;28;20066;-73
2023/01/02 10:59:54;;;;;;;15.18;8.60;;;8.80;99.90;;;;;;5098599;28;20110;-73
2023/01/02 11:02:36;;;;;;;14.82;8.98;;;8.90;99.90;;;;;;5095435;28;20528;-73
2023/01/02 11:05:04;;;;;;;14.50;9.13;;;8.90;99.90;;;;;;5101235;28;20036;-73
2023/01/02 11:07:37;;;;;;;13.60;9.20;;;9.00;99.90;;;;;;5097789;28;20661;-73
2023/01/02 11:10:19;;;;;;;18.55;8.95;;;9.00;99.90;;;;;;5101658;28;20582;-72
2023/01/02 11:12:46;;;;;;;13.23;8.65;;;9.10;99.90;;;;;;5108955;28;20027;-73
2023/01/02 11:15:13;;;;;;;15.52;8.57;;;9.10;99.90;;;;;;5098547;28;20058;-73
2023/01/02 11:17:43;;;;;;;17.83;8.98;;;9.20;99.90;;;;;;5108679;28;20035;-73
2023/01/02 11:20:32;;;;;;;15.60;9.73;;;9.20;99.90;;;;;;5096289;28;20621;-73
2023/01/02 11:23:01;;;;;;;18.10;11.10;;;9.30;99.90;;;;;;5097660;28;20024;-73
2023/01/02 11:25:40;;;;;;;21.55;12.48;;;9.30;99.90;;;;;;5093969;28;20038;-71
2023/01/02 11:28:11;;;;;;;23.38;13.52;;;9.40;99.90;;;;;;5093178;28;20024;-73
2023/01/02 11:30:48;;;;;;;22.65;12.82;;;9.70;99.90;;;;;;5105679;28;20023;-73
2023/01/02 11:33:18;;;;;;;20.52;11.55;;;9.60;99.90;;;;;;5109023;28;20019;-73
2023/01/02 11:35:52;;;;;;;76.55;44.22;;;9.70;99.90;;;;;;5108230;28;20043;-72
2023/01/02 11:38:20;;;;;;;;;;;9.80;99.90;;;;;;5088523;28;20067;-74
2023/01/02 11:40:58;;;;;;;53.92;33.58;;;9.90;99.90;;;;;;5089420;28;19908;-73
2023/01/02 11:43:50;;;;;;;27.70;17.00;;;10.00;99.90;;;;;;5088098;28;20085;-74
2023/01/02 11:46:33;;;;;;;26.10;16.50;;;10.00;99.90;;;;;;5087817;28;20047;-73
2023/01/02 11:49:06;;;;;;;27.65;18.17;;;10.10;99.90;;;;;;5088160;28;20035;-73
2023/01/02 11:51:37;;;;;;;21.33;12.57;;;10.20;99.90;;;;;;5084962;28;20466;-73
2023/01/02 11:54:09;;;;;;;19.65;12.15;;;10.20;99.90;;;;;;5083339;28;20028;-73
2023/01/02 11:56:38;;;;;;;21.17;12.85;;;10.20;99.90;;;;;;5083274;28;20029;-73
2023/01/02 11:59:16;;;;;;;21.48;13.43;;;10.20;99.90;;;;;;5085553;28;20031;-73
2023/01/02 12:02:00;;;;;;;20.95;14.05;;;10.30;99.90;;;;;;5084587;28;20107;-73
2023/01/02 12:04:25;;;;;;;22.85;13.57;;;10.40;99.90;;;;;;5083899;28;20030;-73
2023/01/02 12:07:15;;;;;;;25.40;14.23;;;10.30;99.90;;;;;;5086949;28;20534;-73
2023/01/02 12:10:01;;;;;;;23.30;15.07;;;10.20;99.90;;;;;;5083885;28;20656;-73
2023/01/02 12:13:02;;;;;;;21.92;13.35;;;10.30;99.90;;;;;;5083251;28;20024;-73
2023/01/02 12:15:54;;;;;;;20.35;13.93;;;10.30;99.90;;;;;;5083940;28;20043;-74
2023/01/02 12:18:35;;;;;;;21.08;13.68;;;10.30;99.90;;;;;;5083355;28;20020;-73
2023/01/02 12:21:07;;;;;;;24.17;14.10;;;10.40;99.90;;;;;;5086180;28;20032;-73
2023/01/02 12:23:36;;;;;;;31.48;17.17;;;10.50;99.90;;;;;;5089845;28;20505;-73
2023/01/02 12:26:14;;;;;;;29.05;16.95;;;10.60;99.90;;;;;;5087385;28;20114;-73
2023/01/02 12:28:50;;;;;;;23.73;14.07;;;10.60;99.90;;;;;;5082868;28;20131;-73
2023/01/02 12:31:22;;;;;;;27.10;16.33;;;10.70;99.90;;;;;;5090177;28;20081;-72
2023/01/02 12:34:25;;;;;;;26.08;15.88;;;10.80;99.90;;;;;;5082177;28;20115;-73
2023/01/02 12:37:12;;;;;;;27.27;14.50;;;10.90;99.90;;;;;;5082582;28;20036;-73
2023/01/02 12:40:02;;;;;;;20.88;11.70;;;11.00;99.90;;;;;;5083208;28;20020;-73
2023/01/02 12:42:33;;;;;;;19.15;11.23;;;10.90;99.90;;;;;;5081961;28;20371;-73
2023/01/02 12:45:00;;;;;;;26.88;16.30;;;10.90;99.90;;;;;;5084755;28;20447;-73
2023/01/02 12:47:43;;;;;;;28.88;16.58;;;10.90;99.90;;;;;;5082092;28;20028;-73
2023/01/02 12:50:43;;;;;;;24.52;13.32;;;11.00;99.90;;;;;;5085214;28;20607;-74
2023/01/02 12:53:23;;;;;;;30.35;17.52;;;11.80;99.90;;;;;;5088247;28;20027;-74
2023/01/02 12:56:05;;;;;;;28.65;16.80;;;11.60;99.90;;;;;;5088497;28;21222;-73
2023/01/02 12:58:40;;;;;;;28.15;17.35;;;11.40;99.90;;;;;;5090614;28;20032;-73
2023/01/02 13:01:33;;;;;;;28.83;16.55;;;11.30;99.90;;;;;;5101329;28;20549;-73
2023/01/02 13:04:37;;;;;;;33.15;18.27;;;11.20;99.90;;;;;;5076127;28;20051;-74